createdAt,value
2022-11-01T00:02:17.919Z,101490.38
2022-11-01T00:04:45.327Z,101493.22
2022-11-01T00:07:12.672Z,101489.22
2022-11-01T00:09:40.009Z,101483.19
2022-11-01T00:12:07.449Z,101495.00
2022-11-01T00:14:34.851Z,101480.69
2022-11-01T00:17:02.742Z,101487.81
2022-11-01T00:19:30.120Z,101490.28
2022-11-01T00:21:57.478Z,101491.09
2022-11-01T00:24:27.924Z,101482.06
2022-11-01T00:26:58.207Z,101494.13
2022-11-01T00:29:28.585Z,101488.13
2022-11-01T00:31:56.782Z,101482.34
2022-11-01T00:34:26.492Z,101480.44
2022-11-01T00:36:54.395Z,101466.78
2022-11-01T00:39:21.758Z,101488.34
2022-11-01T00:41:49.086Z,101480.09
2022-11-01T00:44:17.754Z,101474.63
2022-11-01T00:46:45.076Z,101477.22
2022-11-01T00:49:12.492Z,101476.97
2022-11-01T00:51:39.875Z,101478.28
2022-11-01T00:54:07.482Z,101474.09
2022-11-01T00:56:37.747Z,101475.72
2022-11-01T00:59:05.101Z,101478.59
2022-11-01T01:01:32.775Z,101479.22
2022-11-01T01:04:00.180Z,101483.59
2022-11-01T01:06:27.454Z,101481.16
2022-11-01T01:08:58.524Z,101484.56
2022-11-01T01:11:26.316Z,101478.13
2022-11-01T01:13:53.678Z,101471.22
2022-11-01T01:16:21.100Z,101474.44
2022-11-01T01:18:49.577Z,101473.50
2022-11-01T01:21:17.600Z,101468.34
2022-11-01T01:23:46.782Z,101473.19
2022-11-01T01:26:14.473Z,101478.50
2022-11-01T01:28:43.769Z,101477.75
2022-11-01T01:31:16.187Z,101479.97
2022-11-01T01:33:43.583Z,101471.47
2022-11-01T01:36:11.145Z,101471.94
2022-11-01T01:38:38.627Z,101475.16
2022-11-01T01:41:25.421Z,101468.91
2022-11-01T01:43:52.856Z,101466.81
2022-11-01T01:46:20.468Z,101473.72
2022-11-01T01:48:54.961Z,101473.22
2022-11-01T01:51:26.459Z,101469.06
2022-11-01T01:53:58.104Z,101475.34
2022-11-01T01:56:30.789Z,101475.97
2022-11-01T01:59:03.170Z,101490.44
2022-11-01T02:01:31.715Z,101476.13
2022-11-01T02:04:02.625Z,101472.28
2022-11-01T02:06:33.373Z,101466.81
2022-11-01T02:09:03.227Z,101472.09
2022-11-01T02:11:30.537Z,101471.31
2022-11-01T02:13:58.895Z,101469.69
2022-11-01T02:16:52.279Z,101478.38
2022-11-01T02:19:25.612Z,101483.22
2022-11-01T02:22:20.382Z,101475.97
2022-11-01T02:25:10.917Z,101477.75
2022-11-01T02:27:56.432Z,101481.41
2022-11-01T02:30:26.111Z,101471.75
2022-11-01T02:33:05.654Z,101475.44
2022-11-01T02:35:45.064Z,101478.03
2022-11-01T02:38:41.663Z,101476.41
2022-11-01T02:41:25.037Z,101467.59
2022-11-01T02:44:02.362Z,101476.44
2022-11-01T02:46:58.523Z,101468.88
2022-11-01T02:49:34.060Z,101467.91
2022-11-01T02:52:02.859Z,101468.03
2022-11-01T02:54:38.962Z,101463.56
2022-11-01T02:57:27.607Z,101460.00
2022-11-01T03:00:05.072Z,101466.72
2022-11-01T03:02:41.548Z,101471.22
2022-11-01T03:05:16.944Z,101474.63
2022-11-01T03:07:50.520Z,101478.00
2022-11-01T03:10:24.197Z,101477.53
2022-11-01T03:13:02.288Z,101477.97
2022-11-01T03:15:39.669Z,101480.84
2022-11-01T03:18:21.765Z,101483.09
2022-11-01T03:21:00.870Z,101483.59
2022-11-01T03:23:36.337Z,101486.66
2022-11-01T03:26:08.927Z,101481.03
2022-11-01T03:28:45.913Z,101485.03
2022-11-01T03:31:24.187Z,101484.09
2022-11-01T03:33:56.568Z,101486.97
2022-11-01T03:36:27.845Z,101483.91
2022-11-01T03:38:59.800Z,101485.19
2022-11-01T03:41:28.305Z,101489.41
2022-11-01T03:43:56.160Z,101489.53
2022-11-01T03:46:26.241Z,101484.56
2022-11-01T03:48:53.597Z,101471.69
2022-11-01T03:51:22.130Z,101485.50
2022-11-01T03:53:49.461Z,101494.50
2022-11-01T03:56:16.806Z,101513.97
2022-11-01T03:58:45.250Z,101523.22
2022-11-01T04:01:16.592Z,101512.00
2022-11-01T04:03:45.033Z,101503.66
2022-11-01T04:06:12.383Z,101507.91
2022-11-01T04:08:39.859Z,101509.88
2022-11-01T04:11:07.281Z,101514.38
2022-11-01T04:13:34.651Z,101511.31
2022-11-01T04:16:20.616Z,101510.81
2022-11-01T04:19:06.512Z,101505.63
2022-11-01T04:21:36.742Z,101510.94
2022-11-01T04:24:04.310Z,101508.19
2022-11-01T04:26:31.710Z,101507.38
2022-11-01T04:28:59.057Z,101510.44
2022-11-01T04:31:28.059Z,101509.31
2022-11-01T04:33:56.862Z,101503.34
2022-11-01T04:36:24.764Z,101509.31
2022-11-01T04:38:55.738Z,101504.47
2022-11-01T04:41:24.839Z,101508.34
2022-11-01T04:44:00.235Z,101507.88
2022-11-01T04:46:31.882Z,101494.06
2022-11-01T04:48:59.243Z,101498.41
2022-11-01T04:51:26.837Z,101494.53
2022-11-01T04:53:54.138Z,101498.22
2022-11-01T04:56:21.448Z,101497.59
2022-11-01T04:58:48.746Z,101491.59
2022-11-01T05:01:16.246Z,101493.53
2022-11-01T05:03:43.753Z,101486.78
2022-11-01T05:06:13.597Z,101498.22
2022-11-01T05:08:43.852Z,101491.91
2022-11-01T05:11:11.177Z,101496.91
2022-11-01T05:13:40.525Z,101496.06
2022-11-01T05:16:19.838Z,101498.88
2022-11-01T05:18:48.761Z,101498.41
2022-11-01T05:21:17.878Z,101500.81
2022-11-01T05:23:47.950Z,101511.56
2022-11-01T05:26:15.355Z,101507.53
2022-11-01T05:28:42.733Z,101507.53
2022-11-01T05:31:10.107Z,101504.81
2022-11-01T05:33:38.488Z,101509.66
2022-11-01T05:36:06.211Z,101507.41
2022-11-01T05:38:33.568Z,101510.59
2022-11-01T05:41:04.107Z,101515.06
2022-11-01T05:43:31.572Z,101525.59
2022-11-01T05:46:00.754Z,101517.25
2022-11-01T05:48:28.118Z,101521.59
2022-11-01T05:50:55.473Z,101526.53
2022-11-01T05:53:22.820Z,101529.97
2022-11-01T05:55:50.249Z,101523.41
2022-11-01T05:58:17.569Z,101522.72
2022-11-01T06:00:44.929Z,101523.19
2022-11-01T06:03:12.283Z,101528.69
2022-11-01T06:05:39.802Z,101525.81
2022-11-01T06:08:07.360Z,101526.97
2022-11-01T06:10:34.996Z,101518.66
2022-11-01T06:13:02.712Z,101526.69
2022-11-01T06:15:33.107Z,101529.56
2022-11-01T06:18:04.202Z,101522.84
2022-11-01T06:20:32.753Z,101532.34
2022-11-01T06:23:00.537Z,101537.63
2022-11-01T06:25:27.992Z,101533.91
2022-11-01T06:27:55.305Z,101529.91
2022-11-01T06:30:24.454Z,101541.81
2022-11-01T06:32:52.994Z,101544.47
2022-11-01T06:35:20.383Z,101545.31
2022-11-01T06:37:47.664Z,101548.22
2022-11-01T06:40:14.997Z,101545.81
2022-11-01T06:42:46.381Z,101550.44
2022-11-01T06:45:14.326Z,101555.91
2022-11-01T06:47:46.530Z,101550.56
2022-11-01T06:50:13.936Z,101554.38
2022-11-01T06:52:41.278Z,101542.88
2022-11-01T06:55:08.818Z,101553.16
2022-11-01T06:57:36.103Z,101546.69
2022-11-01T07:00:06.960Z,101561.16
2022-11-01T07:02:34.447Z,101550.81
2022-11-01T07:05:01.918Z,101564.81
2022-11-01T07:07:29.406Z,101575.50
2022-11-01T07:09:56.660Z,101573.53
2022-11-01T07:12:23.973Z,101576.50
2022-11-01T07:14:51.201Z,101568.69
2022-11-01T07:17:18.565Z,101585.38
2022-11-01T07:19:45.866Z,101587.31
2022-11-01T07:22:14.345Z,101587.69
2022-11-01T07:24:41.704Z,101587.91
2022-11-01T07:27:09.055Z,101589.72
2022-11-01T07:29:36.300Z,101586.63
2022-11-01T07:32:03.592Z,101584.09
2022-11-01T07:34:32.906Z,101588.97
2022-11-01T07:37:02.360Z,101600.38
2022-11-01T07:39:29.658Z,101595.41
2022-11-01T07:41:58.987Z,101589.31
2022-11-01T07:44:26.246Z,101591.91
2022-11-01T07:46:53.632Z,101594.97
2022-11-01T07:49:21.036Z,101604.16
2022-11-01T07:51:48.318Z,101593.19
2022-11-01T07:54:15.619Z,101598.97
2022-11-01T07:56:43.053Z,101609.78
2022-11-01T07:59:10.329Z,101598.75
2022-11-01T08:01:37.738Z,101602.22
2022-11-01T08:04:05.442Z,101595.06
2022-11-01T08:06:32.860Z,101604.56
2022-11-01T08:09:00.190Z,101604.38
2022-11-01T08:11:28.631Z,101597.50
2022-11-01T08:14:02.893Z,101605.16
2022-11-01T08:16:33.522Z,101613.53
2022-11-01T08:19:00.882Z,101603.56
2022-11-01T08:21:28.276Z,101607.53
2022-11-01T08:23:55.636Z,101603.19
2022-11-01T08:26:23.009Z,101604.44
2022-11-01T08:28:50.931Z,101599.75
2022-11-01T08:31:21.208Z,101597.63
2022-11-01T08:33:48.642Z,101608.78
2022-11-01T08:36:17.405Z,101601.25
2022-11-01T08:38:44.744Z,101602.34
2022-11-01T08:41:12.112Z,101599.38
2022-11-01T08:43:40.689Z,101601.09
2022-11-01T08:46:10.686Z,101599.22
2022-11-01T08:48:40.802Z,101598.50
2022-11-01T08:51:08.146Z,101605.59
2022-11-01T08:53:35.439Z,101601.72
2022-11-01T08:56:02.829Z,101603.78
2022-11-01T08:58:30.145Z,101604.00
2022-11-01T09:00:57.459Z,101612.81
2022-11-01T09:03:24.802Z,101602.75
2022-11-01T09:05:55.043Z,101609.09
2022-11-01T09:08:25.145Z,101605.44
2022-11-01T09:10:57.896Z,101605.81
2022-11-01T09:13:25.382Z,101607.09
2022-11-01T09:15:58.479Z,101612.78
2022-11-01T09:18:28.703Z,101601.25
2022-11-01T09:20:56.549Z,101605.72
2022-11-01T09:23:23.902Z,101621.47
2022-11-01T09:25:51.366Z,101612.88
2022-11-01T09:28:18.700Z,101605.69
2022-11-01T09:30:50.231Z,101615.19
2022-11-01T09:33:28.507Z,101619.94
2022-11-01T09:35:59.543Z,101617.47
2022-11-01T09:38:27.978Z,101628.50
2022-11-01T09:41:14.297Z,101624.19
2022-11-01T09:43:44.065Z,101623.66
2022-11-01T09:46:15.871Z,101630.25
2022-11-01T09:48:45.505Z,101626.72
2022-11-01T09:51:19.716Z,101627.59
2022-11-01T09:53:54.068Z,101634.81
2022-11-01T09:56:30.387Z,101630.75
2022-11-01T09:59:22.661Z,101625.41
2022-11-01T10:02:26.381Z,101621.03
2022-11-01T10:05:27.613Z,101615.88
2022-11-01T10:08:10.758Z,101624.44
2022-11-01T10:11:09.399Z,101623.28
2022-11-01T10:13:54.336Z,101619.56
2022-11-01T10:16:37.721Z,101617.88
2022-11-01T10:19:17.462Z,101618.47
2022-11-01T10:21:47.117Z,101616.97
2022-11-01T10:24:20.520Z,101611.81
2022-11-01T10:26:54.111Z,101618.34
2022-11-01T10:29:36.252Z,101622.25
2022-11-01T10:32:04.254Z,101625.22
2022-11-01T10:34:38.671Z,101620.88
2022-11-01T10:37:23.556Z,101620.31
2022-11-01T10:39:59.057Z,101623.84
2022-11-01T10:42:30.364Z,101618.47
2022-11-01T10:45:06.549Z,101625.69
2022-11-01T10:47:33.940Z,101621.19
2022-11-01T10:50:20.939Z,101617.94
2022-11-01T10:52:48.171Z,101613.69
2022-11-01T10:55:33.136Z,101610.81
2022-11-01T10:58:08.658Z,101618.38
2022-11-01T11:00:40.048Z,101614.94
2022-11-01T11:03:30.382Z,101605.78
2022-11-01T11:06:01.541Z,101607.81
2022-11-01T11:08:28.969Z,101602.75
2022-11-01T11:11:01.636Z,101603.44
2022-11-01T11:13:30.481Z,101594.50
2022-11-01T11:16:05.453Z,101588.28
2022-11-01T11:18:35.402Z,101584.03
2022-11-01T11:21:06.179Z,101581.38
2022-11-01T11:23:34.758Z,101579.41
2022-11-01T11:26:16.585Z,101572.94
2022-11-01T11:28:48.900Z,101576.16
2022-11-01T11:31:23.101Z,101567.34
2022-11-01T11:33:56.570Z,101568.25
2022-11-01T11:36:34.011Z,101576.16
2022-11-01T11:39:02.820Z,101582.47
2022-11-01T11:41:33.222Z,101578.19
2022-11-01T11:44:01.613Z,101584.16
2022-11-01T11:46:29.520Z,101581.03
2022-11-01T11:49:07.215Z,101584.25
2022-11-01T11:51:39.430Z,101584.34
2022-11-01T11:54:37.670Z,101580.97
2022-11-01T11:57:11.699Z,101582.13
2022-11-01T11:59:40.191Z,101582.13
2022-11-01T12:02:18.965Z,101584.28
2022-11-01T12:04:53.195Z,101578.41
2022-11-01T12:07:27.659Z,101579.63
2022-11-01T12:09:56.337Z,101575.47
2022-11-01T12:12:29.608Z,101565.94
2022-11-01T12:14:58.950Z,101567.94
2022-11-01T12:17:44.837Z,101570.25
2022-11-01T12:20:22.309Z,101565.97
2022-11-01T12:22:59.218Z,101566.50
2022-11-01T12:25:26.884Z,101553.97
2022-11-01T12:28:03.481Z,101539.81
2022-11-01T12:30:33.506Z,101530.28
2022-11-01T12:33:27.779Z,101525.97
2022-11-01T12:35:58.445Z,101529.00
2022-11-01T12:38:48.891Z,101531.44
2022-11-01T12:41:38.059Z,101521.56
2022-11-01T12:44:43.967Z,101516.06
2022-11-01T12:47:27.790Z,101522.38
2022-11-01T12:50:07.292Z,101505.31
2022-11-01T12:53:01.191Z,101510.63
2022-11-01T12:55:39.916Z,101507.16
2022-11-01T12:58:19.127Z,101506.88
2022-11-01T13:01:02.350Z,101504.47
2022-11-01T13:03:49.678Z,101515.94
2022-11-01T13:06:54.330Z,101504.41
2022-11-01T13:09:40.478Z,101498.66
2022-11-01T13:12:40.135Z,101489.13
2022-11-01T13:15:25.591Z,101498.56
2022-11-01T13:18:35.787Z,101493.03
2022-11-01T13:21:15.342Z,101490.06
2022-11-01T13:23:49.981Z,101496.75
2022-11-01T13:26:37.645Z,101497.88
2022-11-01T13:29:14.327Z,101502.53
2022-11-01T13:32:07.487Z,101505.28
2022-11-01T13:35:02.120Z,101515.16
2022-11-01T13:37:45.339Z,101513.03
2022-11-01T13:40:18.666Z,101518.91
2022-11-01T13:42:59.939Z,101513.81
2022-11-01T13:45:33.540Z,101511.41
2022-11-01T13:48:18.992Z,101511.50
2022-11-01T13:50:58.386Z,101515.97
2022-11-01T13:53:25.684Z,101511.59
2022-11-01T13:55:55.434Z,101505.53
2022-11-01T13:58:23.929Z,101501.97
2022-11-01T14:00:54.533Z,101496.41
2022-11-01T14:03:31.578Z,101510.38
2022-11-01T14:06:11.560Z,101517.06
2022-11-01T14:08:44.038Z,101515.47
2022-11-01T14:11:32.337Z,101511.09
2022-11-01T14:13:59.864Z,101514.22
2022-11-01T14:16:28.236Z,101511.03
2022-11-01T14:19:20.752Z,101513.78
2022-11-01T14:21:51.830Z,101520.41
2022-11-01T14:24:33.829Z,101522.28
2022-11-01T14:27:07.859Z,101508.94
2022-11-01T14:29:36.630Z,101521.13
2022-11-01T14:32:05.718Z,101517.03
2022-11-01T14:34:36.094Z,101519.34
2022-11-01T14:37:13.881Z,101520.59
2022-11-01T14:39:49.674Z,101518.28
2022-11-01T14:42:23.243Z,101515.00
2022-11-01T14:44:53.808Z,101523.16
2022-11-01T14:47:31.398Z,101525.03
2022-11-01T14:50:02.919Z,101515.09
2022-11-01T14:52:40.681Z,101514.53
2022-11-01T14:55:32.286Z,101510.19
2022-11-01T14:58:19.617Z,101510.53
2022-11-01T15:00:49.703Z,101499.09
2022-11-01T15:03:18.470Z,101502.28
2022-11-01T15:05:49.114Z,101496.34
2022-11-01T15:08:44.719Z,101496.66
2022-11-01T15:11:12.189Z,101498.19
2022-11-01T15:13:43.061Z,101498.47
2022-11-01T15:16:16.007Z,101496.41
2022-11-01T15:18:51.734Z,101506.19
2022-11-01T15:21:25.515Z,101508.94
2022-11-01T15:23:57.424Z,101512.03
2022-11-01T15:26:30.434Z,101508.03
2022-11-01T15:29:01.432Z,101505.63
2022-11-01T15:31:29.364Z,101508.63
2022-11-01T15:34:06.350Z,101515.66
2022-11-01T15:36:36.838Z,101521.53
2022-11-01T15:39:17.499Z,101525.88
2022-11-01T15:41:46.612Z,101530.50
2022-11-01T15:44:32.448Z,101538.09
2022-11-01T15:47:02.338Z,101531.06
2022-11-01T15:49:32.082Z,101529.13
2022-11-01T15:52:05.201Z,101537.44
2022-11-01T15:54:32.473Z,101545.03
2022-11-01T15:57:04.486Z,101550.09
2022-11-01T15:59:36.785Z,101548.81
2022-11-01T16:02:08.671Z,101552.75
2022-11-01T16:04:40.915Z,101559.59
2022-11-01T16:07:12.490Z,101562.69
2022-11-01T16:09:47.358Z,101561.19
2022-11-01T16:12:27.185Z,101568.28
2022-11-01T16:15:06.475Z,101555.25
2022-11-01T16:17:42.892Z,101556.97
2022-11-01T16:20:34.469Z,101557.13
2022-11-01T16:23:07.025Z,101555.84
2022-11-01T16:25:39.319Z,101554.69
2022-11-01T16:28:09.617Z,101572.00
2022-11-01T16:30:46.509Z,101578.13
2022-11-01T16:33:30.738Z,101586.00
2022-11-01T16:36:20.819Z,101593.47
2022-11-01T16:38:51.976Z,101600.50
2022-11-01T16:41:22.712Z,101610.16
2022-11-01T16:43:55.364Z,101606.56
2022-11-01T16:46:24.426Z,101618.53
2022-11-01T16:49:05.623Z,101620.59
2022-11-01T16:51:33.728Z,101626.00
2022-11-01T16:54:01.315Z,101635.03
2022-11-01T16:56:38.446Z,101632.28
2022-11-01T16:59:12.429Z,101638.59
2022-11-01T17:01:40.000Z,101641.09
2022-11-01T17:04:11.294Z,101638.81
2022-11-01T17:06:39.508Z,101633.19
2022-11-01T17:09:14.757Z,101636.28
2022-11-01T17:11:47.803Z,101632.72
2022-11-01T17:14:18.118Z,101629.84
2022-11-01T17:16:47.632Z,101628.59
2022-11-01T17:19:21.452Z,101620.22
2022-11-01T17:21:50.901Z,101614.13
2022-11-01T17:24:21.336Z,101618.47
2022-11-01T17:26:51.014Z,101621.91
2022-11-01T17:29:18.409Z,101618.25
2022-11-01T17:31:45.735Z,101614.13
2022-11-01T17:34:16.899Z,101613.66
2022-11-01T17:36:48.037Z,101612.38
2022-11-01T17:39:15.531Z,101610.91
2022-11-01T17:41:42.921Z,101606.91
2022-11-01T17:44:12.205Z,101615.81
2022-11-01T17:46:40.031Z,101606.09
2022-11-01T17:49:07.487Z,101603.34
2022-11-01T17:51:34.891Z,101594.66
2022-11-01T17:54:02.224Z,101597.72
2022-11-01T17:56:29.596Z,101589.38
2022-11-01T17:58:56.911Z,101586.94
2022-11-01T18:01:24.889Z,101587.97
2022-11-01T18:03:52.287Z,101584.78
2022-11-01T18:06:19.632Z,101588.19
2022-11-01T18:08:50.504Z,101589.81
2022-11-01T18:11:34.457Z,101587.88
2022-11-01T18:14:30.980Z,101578.81
2022-11-01T18:17:13.201Z,101584.78
2022-11-01T18:19:59.111Z,101590.72
2022-11-01T18:22:38.427Z,101588.97
2022-11-01T18:25:24.259Z,101587.88
2022-11-01T18:27:51.795Z,101587.06
2022-11-01T18:30:19.529Z,101590.84
2022-11-01T18:33:04.950Z,101590.84
2022-11-01T18:35:41.888Z,101598.50
2022-11-01T18:38:21.904Z,101607.75
2022-11-01T18:40:57.217Z,101609.69
2022-11-01T18:43:27.078Z,101608.53
2022-11-01T18:46:23.476Z,101609.59
2022-11-01T18:48:42.792Z,101605.03
2022-11-01T18:51:21.247Z,101609.41
2022-11-01T18:53:54.813Z,101611.69
2022-11-01T18:56:25.567Z,101609.03
2022-11-01T18:58:55.327Z,101603.34
2022-11-01T19:01:32.525Z,101617.38
2022-11-01T19:04:21.481Z,101614.97
2022-11-01T19:06:51.554Z,101624.53
2022-11-01T19:09:24.472Z,101618.38
2022-11-01T19:12:00.860Z,101624.66
2022-11-01T19:14:30.436Z,101622.00
2022-11-01T19:16:58.132Z,101618.31
2022-11-01T19:19:25.571Z,101628.03
2022-11-01T19:21:59.059Z,101617.28
2022-11-01T19:24:36.132Z,101613.00
2022-11-01T19:27:18.418Z,101618.91
2022-11-01T19:29:45.853Z,101609.53
2022-11-01T19:32:16.402Z,101611.75
2022-11-01T19:34:43.898Z,101620.06
2022-11-01T19:37:34.626Z,101620.78
2022-11-01T19:40:09.953Z,101613.44
2022-11-01T19:42:38.868Z,101612.94
2022-11-01T19:45:12.385Z,101612.88
2022-11-01T19:47:43.231Z,101615.84
2022-11-01T19:50:34.061Z,101617.69
2022-11-01T19:53:01.654Z,101625.88
2022-11-01T19:56:05.039Z,101622.66
2022-11-01T19:58:49.078Z,101629.50
2022-11-01T20:01:16.596Z,101626.16
2022-11-01T20:03:46.056Z,101626.34
2022-11-01T20:06:21.288Z,101633.19
2022-11-01T20:08:58.422Z,101625.44
2022-11-01T20:11:26.959Z,101632.88
2022-11-01T20:13:57.575Z,101638.97
2022-11-01T20:16:25.781Z,101636.91
2022-11-01T20:18:53.883Z,101633.22
2022-11-01T20:21:22.486Z,101634.47
2022-11-01T20:23:50.073Z,101642.44
2022-11-01T20:26:17.533Z,101635.34
2022-11-01T20:28:44.955Z,101642.47
2022-11-01T20:31:13.930Z,101642.81
2022-11-01T20:33:41.467Z,101640.41
2022-11-01T20:36:11.437Z,101648.94
2022-11-01T20:38:40.875Z,101646.34
2022-11-01T20:41:09.720Z,101646.88
2022-11-01T20:43:37.377Z,101643.63
2022-11-01T20:46:04.963Z,101656.41
2022-11-01T20:48:34.204Z,101659.97
2022-11-01T20:51:01.913Z,101653.03
2022-11-01T20:53:30.036Z,101665.75
2022-11-01T20:55:57.572Z,101652.56
2022-11-01T20:58:28.574Z,101654.16
2022-11-01T21:00:56.462Z,101657.25
2022-11-01T21:03:25.623Z,101665.63
2022-11-01T21:05:53.301Z,101670.94
2022-11-01T21:08:34.207Z,101668.84
2022-11-01T21:11:08.131Z,101678.22
2022-11-01T21:13:39.052Z,101675.63
2022-11-01T21:16:24.335Z,101667.72
2022-11-01T21:18:54.975Z,101671.94
2022-11-01T21:21:27.417Z,101673.38
2022-11-01T21:23:55.182Z,101677.13
2022-11-01T21:26:25.917Z,101676.50
2022-11-01T21:29:02.353Z,101671.03
2022-11-01T21:31:34.502Z,101671.31
2022-11-01T21:34:11.015Z,101679.38
2022-11-01T21:36:48.472Z,101679.56
2022-11-01T21:39:26.994Z,101676.34
2022-11-01T21:41:57.069Z,101676.63
2022-11-01T21:44:40.022Z,101675.19
2022-11-01T21:47:23.333Z,101674.41
2022-11-01T21:49:51.445Z,101669.09
2022-11-01T21:52:21.630Z,101671.84
2022-11-01T21:54:49.347Z,101670.69
2022-11-01T21:57:17.311Z,101677.94
2022-11-01T21:59:44.941Z,101673.13
2022-11-01T22:02:14.307Z,101672.81
2022-11-01T22:04:42.175Z,101667.81
2022-11-01T22:07:11.082Z,101669.59
2022-11-01T22:09:39.089Z,101664.44
2022-11-01T22:12:07.051Z,101669.91
2022-11-01T22:14:34.990Z,101664.44
2022-11-01T22:17:02.413Z,101669.09
2022-11-01T22:19:29.789Z,101665.56
2022-11-01T22:21:57.130Z,101676.53
2022-11-01T22:24:27.115Z,101680.84
2022-11-01T22:26:54.462Z,101683.91
2022-11-01T22:29:21.814Z,101680.50
2022-11-01T22:31:49.163Z,101679.53
2022-11-01T22:34:17.471Z,101682.28
2022-11-01T22:36:44.954Z,101676.66
2022-11-01T22:39:23.522Z,101679.41
2022-11-01T22:41:51.309Z,101673.94
2022-11-01T22:44:25.299Z,101677.47
2022-11-01T22:46:58.991Z,101670.72
2022-11-01T22:49:31.448Z,101660.91
2022-11-01T22:52:16.768Z,101663.16
2022-11-01T22:54:47.726Z,101667.66
2022-11-01T22:57:19.117Z,101667.34
2022-11-01T22:59:51.808Z,101663.66
2022-11-01T23:02:33.604Z,101668.00
2022-11-01T23:05:24.886Z,101669.28
2022-11-01T23:07:57.973Z,101674.44
2022-11-01T23:10:25.646Z,101672.63
2022-11-01T23:13:19.469Z,101672.16
2022-11-01T23:15:47.166Z,101670.38
2022-11-01T23:18:27.808Z,101667.63
2022-11-01T23:21:00.460Z,101660.22
2022-11-01T23:23:29.023Z,101656.53
2022-11-01T23:25:59.370Z,101656.69
2022-11-01T23:28:27.647Z,101659.59
2022-11-01T23:30:56.386Z,101667.81
2022-11-01T23:33:30.935Z,101661.84
2022-11-01T23:36:00.934Z,101676.09
2022-11-01T23:38:51.200Z,101673.97
2022-11-01T23:41:23.664Z,101671.63
2022-11-01T23:43:53.696Z,101666.16
2022-11-01T23:46:21.264Z,101664.56
2022-11-01T23:48:49.214Z,101663.44
2022-11-01T23:51:21.343Z,101657.84
2022-11-01T23:53:52.970Z,101652.38
2022-11-01T23:56:22.009Z,101661.56
2022-11-01T23:59:04.303Z,101654.81
